Time;durP1;ratioP1;P1;durP2;ratioP2;P2;SDS_P1;SDS_P2;PMS_P1;PMS_P2;Temp;Humidity;BMP_temperature;BMP_pressure;BME280_temperature;BME280_humidity;BME280_pressure;Samples;Min_cycle;Max_cycle;Signal;HPM_P1;HPM_P2
2024/02/16 00:01:45;;;;;;;;;;;9.00;99.90;;;;;;21283713;27;19922;-81
2024/02/16 00:11:48;;;;;;;;;;;8.80;99.90;;;;;;21278044;27;20002;-81
2024/02/16 00:21:51;;;;;;;;;;;8.70;99.90;;;;;;21278869;27;19915;-78
2024/02/16 00:31:51;;;;;;;;;;;8.60;99.90;;;;;;21276261;27;19911;-79
2024/02/16 00:41:52;;;;;;;;;;;8.50;99.90;;;;;;21284690;27;19941;-79
2024/02/16 00:51:52;;;;;;;;;;;8.70;99.90;;;;;;21279693;27;19915;-80
2024/02/16 01:01:53;;;;;;;;;;;8.60;99.90;;;;;;21285707;27;19971;-79
2024/02/16 01:11:54;;;;;;;;;;;8.30;99.90;;;;;;21223215;28;19916;-81
2024/02/16 01:21:57;;;;;;;;;;;8.00;99.90;;;;;;21210074;28;19916;-80
2024/02/16 01:31:58;;;;;;;;;;;7.90;99.90;;;;;;21202928;28;20290;-80
2024/02/16 01:41:59;;;;;;;;;;;7.50;99.90;;;;;;21200948;28;19915;-80
2024/02/16 01:52:00;;;;;;;;;;;7.20;99.90;;;;;;21199201;28;19943;-78
2024/02/16 02:02:00;;;;;;;;;;;7.10;99.90;;;;;;21209643;27;19919;-81
2024/02/16 02:12:01;;;;;;;;;;;7.20;99.90;;;;;;21303247;27;19962;-81
2024/02/16 02:22:02;;;;;;;;;;;7.20;99.90;;;;;;21304803;27;19915;-81
2024/02/16 02:32:05;;;;;;;;;;;7.20;99.90;;;;;;21306446;27;21384;-79
2024/02/16 02:42:08;;;;;;;;;;;7.10;99.90;;;;;;21296022;27;20331;-81
2024/02/16 02:52:09;;;;;;;;;;;7.00;99.90;;;;;;21299517;27;19911;-80
2024/02/16 03:02:09;;;;;;;;;;;7.10;99.90;;;;;;21319067;27;20355;-81
2024/02/16 03:12:11;;;;;;;;;;;7.00;99.90;;;;;;21295902;27;19998;-80
2024/02/16 03:22:12;;;;;;;;;;;7.10;99.90;;;;;;21309947;27;19936;-79
2024/02/16 03:32:13;;;;;;;;;;;6.80;99.90;;;;;;21307742;27;19946;-83
2024/02/16 03:42:13;;;;;;;;;;;6.80;99.90;;;;;;21311188;27;19916;-81
2024/02/16 03:52:14;;;;;;;;;;;6.70;99.90;;;;;;21288785;27;19980;-80
2024/02/16 04:02:15;;;;;;;;;;;6.60;99.90;;;;;;21306438;27;19965;-81
2024/02/16 04:12:15;;;;;;;;;;;6.30;99.90;;;;;;21279039;27;19919;-82
2024/02/16 04:22:16;;;;;;;;;;;6.20;99.90;;;;;;21271077;27;19944;-81
2024/02/16 04:32:17;;;;;;;;;;;5.90;99.90;;;;;;21275821;27;20044;-81
2024/02/16 04:42:18;;;;;;;;;;;5.80;99.90;;;;;;21279210;27;19916;-81
2024/02/16 04:52:18;;;;;;;;;;;5.80;99.90;;;;;;21286382;27;20384;-82
2024/02/16 05:02:19;;;;;;;;;;;6.00;99.90;;;;;;21279586;27;19919;-80
2024/02/16 05:12:20;;;;;;;;;;;6.00;99.90;;;;;;21302894;27;19968;-78
2024/02/16 05:22:21;;;;;;;;;;;6.10;99.90;;;;;;21307071;27;19950;-78
2024/02/16 05:32:22;;;;;;;;;;;6.10;99.90;;;;;;21308989;27;19911;-81
2024/02/16 05:42:23;;;;;;;;;;;6.20;99.90;;;;;;21282375;27;19926;-78
2024/02/16 05:52:24;;;;;;;;;;;6.10;99.90;;;;;;21287475;27;19911;-79
2024/02/16 06:02:27;;;;;;;;;;;6.10;99.90;;;;;;21274846;27;20022;-81
2024/02/16 06:12:28;;;;;;;;;;;6.10;99.90;;;;;;21317327;27;20427;-80
2024/02/16 06:22:31;;;;;;;;;;;6.10;99.90;;;;;;21310752;27;19923;-81
2024/02/16 06:32:32;;;;;;;;;;;6.10;99.90;;;;;;21316211;27;19919;-82
2024/02/16 06:42:34;;;;;;;;;;;6.20;99.90;;;;;;21316890;27;20001;-79
2024/02/16 06:52:34;;;;;;;;;;;6.20;99.90;;;;;;21309655;27;19918;-79
2024/02/16 07:02:35;;;;;;;;;;;6.30;99.90;;;;;;21317342;27;20385;-82
2024/02/16 07:12:36;;;;;;;;;;;6.30;99.90;;;;;;21303371;27;19969;-81
2024/02/16 07:22:36;;;;;;;;;;;6.50;99.90;;;;;;21283511;27;19915;-82
2024/02/16 07:32:37;;;;;;;;;;;6.60;99.90;;;;;;21278999;27;20322;-80
2024/02/16 07:42:39;;;;;;;;;;;6.80;99.90;;;;;;21244049;27;20010;-81
2024/02/16 07:52:40;;;;;;;;;;;6.80;99.90;;;;;;21276875;27;19954;-79
2024/02/16 08:02:43;;;;;;;;;;;7.00;99.90;;;;;;21247352;27;20446;-80
2024/02/16 08:12:43;;;;;;;;;;;7.20;99.90;;;;;;21286272;27;19915;-78
2024/02/16 08:22:44;;;;;;;;;;;7.40;99.90;;;;;;21282143;27;20400;-79
2024/02/16 08:32:44;;;;;;;;;;;7.70;99.90;;;;;;21263967;27;19949;-78
2024/02/16 08:42:47;;;;;;;;;;;7.80;99.90;;;;;;21258776;27;19918;-79
2024/02/16 08:52:47;;;;;;;;;;;8.10;99.90;;;;;;21279597;27;19972;-79
2024/02/16 09:02:48;;;;;;;;;;;8.30;99.90;;;;;;21298114;27;19919;-79
2024/02/16 09:12:51;;;;;;;;;;;8.80;99.90;;;;;;21291945;27;19915;-79
2024/02/16 09:22:52;;;;;;;;;;;9.40;99.90;;;;;;21306215;27;19919;-80
2024/02/16 09:32:53;;;;;;;;;;;9.20;99.90;;;;;;21303443;27;20003;-79
2024/02/16 09:42:54;;;;;;;;;;;9.20;99.90;;;;;;21301916;27;20416;-79
2024/02/16 09:52:56;;;;;;;;;;;9.60;99.90;;;;;;21292690;27;20040;-79
2024/02/16 10:02:56;;;;;;;;;;;9.70;99.90;;;;;;21298309;27;19915;-77
2024/02/16 10:13:08;;;;;;;;;;;9.90;99.90;;;;;;21297975;27;19977;-80
2024/02/16 10:23:09;;;;;;;;;;;10.10;99.90;;;;;;21284283;27;19958;-79
2024/02/16 10:33:12;;;;;;;;;;;10.20;99.90;;;;;;21292109;27;19918;-79
2024/02/16 10:43:13;;;;;;;;;;;10.60;99.90;;;;;;21280266;27;19950;-79
2024/02/16 10:53:22;;;;;;;;;;;11.00;99.90;;;;;;21307484;27;19914;-79
2024/02/16 11:03:24;;;;;;;;;;;11.60;99.90;;;;;;21296816;27;19945;-78
2024/02/16 11:13:26;;;;;;;;;;;12.20;99.90;;;;;;21230773;27;19961;-80
2024/02/16 11:23:28;;;;;;;;;;;12.90;99.90;;;;;;21257298;27;20285;-79
2024/02/16 11:33:29;;;;;;;;;;;13.40;99.90;;;;;;21246776;27;19919;-80
2024/02/16 11:43:32;;;;;;;;;;;13.20;99.90;;;;;;21265627;27;19916;-81
2024/02/16 11:53:33;;;;;;;;;;;13.10;99.90;;;;;;21263282;27;19911;-80
2024/02/16 12:03:34;;;;;;;;;;;13.10;99.90;;;;;;21223269;27;20404;-79
2024/02/16 12:13:35;;;;;;;;;;;14.20;99.90;;;;;;21258805;27;19915;-80
2024/02/16 12:23:36;;;;;;;;;;;14.40;99.90;;;;;;21252225;27;19915;-79
2024/02/16 12:33:36;;;;;;;;;;;14.60;99.90;;;;;;21260288;27;19954;-79
2024/02/16 12:43:37;;;;;;;;;;;14.50;99.90;;;;;;21278340;27;19976;-79
2024/02/16 12:53:40;;;;;;;;;;;15.10;99.90;;;;;;21276726;27;19911;-79
2024/02/16 13:03:41;;;;;;;;;;;14.80;99.90;;;;;;21269314;27;20012;-78
2024/02/16 13:13:42;;;;;;;;;;;14.30;99.90;;;;;;21259112;28;19920;-79
2024/02/16 13:23:42;;;;;;;;;;;14.50;99.90;;;;;;21230295;28;19987;-78
2024/02/16 13:33:43;;;;;;;;;;;14.90;99.90;;;;;;21239486;28;19922;-78
2024/02/16 13:43:44;;;;;;;;;;;14.80;99.90;;;;;;21220051;28;20015;-78
2024/02/16 13:53:45;;;;;;;;;;;15.10;99.90;;;;;;21191256;27;20289;-78
2024/02/16 14:03:45;;;;;;;;;;;15.20;99.90;;;;;;21200295;27;19916;-78
2024/02/16 14:13:46;;;;;;;;;;;15.80;99.90;;;;;;21199596;27;19916;-77
2024/02/16 14:23:47;;;;;;;;;;;15.90;99.90;;;;;;21196315;27;19961;-78
2024/02/16 14:33:50;;;;;;;;;;;15.50;99.90;;;;;;21188608;27;19955;-79
2024/02/16 14:43:51;;;;;;;;;;;14.90;99.90;;;;;;21207020;27;19923;-78
2024/02/16 14:53:51;;;;;;;;;;;14.60;99.90;;;;;;21195656;27;20582;-78
2024/02/16 15:03:52;;;;;;;;;;;14.40;99.90;;;;;;21194832;27;19930;-78
2024/02/16 15:13:53;;;;;;;;;;;14.30;99.90;;;;;;21182098;27;19943;-79
2024/02/16 15:23:54;;;;;;;;;;;14.60;99.90;;;;;;21197068;28;19923;-78
2024/02/16 15:33:55;;;;;;;;;;;14.00;99.90;;;;;;21187935;27;19912;-79
2024/02/16 15:43:56;;;;;;;;;;;14.10;99.90;;;;;;21186567;27;19922;-79
2024/02/16 15:53:56;;;;;;;;;;;14.00;99.90;;;;;;21174487;27;19955;-79
2024/02/16 16:03:57;;;;;;;;;;;13.60;99.90;;;;;;21192736;27;19916;-77
2024/02/16 16:13:58;;;;;;;;;;;13.40;99.90;;;;;;21192270;28;20425;-79
2024/02/16 16:23:58;;;;;;;;;;;13.20;99.90;;;;;;21184974;27;19923;-78
2024/02/16 16:33:59;;;;;;;;;;;13.00;99.90;;;;;;21183209;27;19911;-79
2024/02/16 16:43:59;;;;;;;;;;;12.80;99.90;;;;;;21172586;27;20513;-78
2024/02/16 16:54:00;;;;;;;;;;;12.60;99.90;;;;;;21175234;27;19919;-78
2024/02/16 17:04:01;;;;;;;;;;;12.40;99.90;;;;;;21186456;27;19916;-80
2024/02/16 17:14:01;;;;;;;;;;;12.40;99.90;;;;;;21165311;28;20235;-79
2024/02/16 17:24:02;;;;;;;;;;;12.10;99.90;;;;;;21211982;27;19919;-78
2024/02/16 17:34:05;;;;;;;;;;;12.10;99.90;;;;;;21192716;27;19969;-78
2024/02/16 17:44:06;;;;;;;;;;;12.20;99.90;;;;;;21188153;27;19916;-78
2024/02/16 17:54:07;;;;;;;;;;;12.10;99.90;;;;;;21165979;27;20370;-79
2024/02/16 18:04:08;;;;;;;;;;;11.80;99.90;;;;;;21184185;27;19939;-79
2024/02/16 18:14:09;;;;;;;;;;;11.40;99.90;;;;;;21177319;27;19958;-78
2024/02/16 18:24:09;;;;;;;;;;;11.30;99.90;;;;;;21221433;27;20397;-78
2024/02/16 18:34:10;;;;;;;;;;;11.20;99.90;;;;;;21206444;27;19994;-78
2024/02/16 18:44:13;;;;;;;;;;;11.20;99.90;;;;;;21202063;27;19915;-77
2024/02/16 18:54:13;;;;;;;;;;;11.10;99.90;;;;;;21199548;27;19919;-77
2024/02/16 19:04:14;;;;;;;;;;;11.00;99.90;;;;;;21206642;27;19939;-78
2024/02/16 19:14:14;;;;;;;;;;;10.90;99.90;;;;;;21233575;27;20281;-79
2024/02/16 19:24:16;;;;;;;;;;;11.00;99.90;;;;;;21214762;27;19919;-80
2024/02/16 19:34:17;;;;;;;;;;;11.00;99.90;;;;;;21226006;27;19912;-81
2024/02/16 19:44:19;;;;;;;;;;;11.00;99.90;;;;;;21238363;27;19916;-79
2024/02/16 19:54:19;;;;;;;;;;;11.10;99.90;;;;;;21223780;27;19906;-78
2024/02/16 20:04:20;;;;;;;;;;;11.00;99.90;;;;;;21240256;27;20011;-81
2024/02/16 20:14:21;;;;;;;;;;;11.10;99.90;;;;;;21221866;27;19919;-81
2024/02/16 20:24:21;;;;;;;;;;;11.20;99.90;;;;;;21193358;27;19922;-79
2024/02/16 20:34:22;;;;;;;;;;;11.10;99.90;;;;;;21208253;27;20517;-80
2024/02/16 20:44:23;;;;;;;;;;;11.00;99.90;;;;;;21218925;27;19919;-81
2024/02/16 20:54:26;;;;;;;;;;;11.00;99.90;;;;;;21253381;27;19908;-77
2024/02/16 21:04:34;;;;;;;;;;;10.90;99.90;;;;;;21246538;27;19927;-80
2024/02/16 21:14:35;;;;;;;;;;;10.90;99.90;;;;;;21229837;27;19931;-81
2024/02/16 21:24:35;;;;;;;;;;;10.90;99.90;;;;;;21215410;28;19951;-80
2024/02/16 21:34:36;;;;;;;;;;;10.80;99.90;;;;;;21219418;28;19939;-80
2024/02/16 21:44:37;;;;;;;;;;;10.80;99.90;;;;;;21226713;28;19922;-79
2024/02/16 21:54:38;;;;;;;;;;;10.80;99.90;;;;;;21226353;27;19975;-82
2024/02/16 22:04:38;;;;;;;;;;;10.80;99.90;;;;;;21219809;28;19930;-81
2024/02/16 22:14:39;;;;;;;;;;;10.70;99.90;;;;;;21212067;27;19923;-81
2024/02/16 22:24:40;;;;;;;;;;;10.70;99.90;;;;;;21229056;27;19955;-81
2024/02/16 22:34:40;;;;;;;;;;;10.60;99.90;;;;;;21224815;27;19912;-81
2024/02/16 22:44:42;;;;;;;;;;;10.60;99.90;;;;;;21218934;27;19915;-79
2024/02/16 22:54:42;;;;;;;;;;;10.60;99.90;;;;;;21218488;27;19912;-79
2024/02/16 23:04:43;;;;;;;;;;;10.60;99.90;;;;;;21203575;27;20009;-79
2024/02/16 23:14:44;;;;;;;;;;;10.60;99.90;;;;;;21201953;27;19915;-80
2024/02/16 23:24:45;;;;;;;;;;;10.70;99.90;;;;;;21191298;27;20407;-79
2024/02/16 23:34:45;;;;;;;;;;;10.70;99.90;;;;;;21166956;27;19986;-80
2024/02/16 23:44:46;;;;;;;;;;;10.70;99.90;;;;;;21202120;27;19947;-77
2024/02/16 23:54:47;;;;;;;;;;;10.70;99.90;;;;;;21170175;27;19912;-79
